Time;durP1;ratioP1;P1;durP2;ratioP2;P2;SDS_P1;SDS_P2;PMS_P1;PMS_P2;Temp;Humidity;BMP_temperature;BMP_pressure;BME280_temperature;BME280_humidity;BME280_pressure;Samples;Min_cycle;Max_cycle;Signal;HPM_P1;HPM_P2
2022/11/25 00:01:33;;;;;;;3.67;2.77;;;8.10;94.80;;;8.14;60.16;94732.38;5023265;28;20554;-57
2022/11/25 00:04:01;;;;;;;3.27;2.13;;;8.20;94.90;;;8.14;60.13;94734.19;5021674;28;20499;-55
2022/11/25 00:06:29;;;;;;;2.90;2.70;;;8.10;94.90;;;8.13;59.68;94735.13;5022776;28;20444;-53
2022/11/25 00:08:59;;;;;;;3.30;2.57;;;8.10;94.90;;;8.14;59.73;94749.91;5023124;28;20477;-55
2022/11/25 00:11:26;;;;;;;2.60;2.40;;;8.10;94.90;;;8.13;59.87;94738.56;5022888;28;20487;-56
2022/11/25 00:13:54;;;;;;;2.37;2.17;;;8.20;95.00;;;8.15;59.62;94741.06;5022504;28;20737;-54
2022/11/25 00:16:22;;;;;;;2.00;1.90;;;8.20;94.90;;;8.14;60.06;94753.34;5022401;28;20457;-54
2022/11/25 00:18:50;;;;;;;2.43;2.23;;;8.10;94.80;;;8.14;59.65;94750.72;5023144;28;20472;-55
2022/11/25 00:21:19;;;;;;;1.90;1.80;;;8.10;94.80;;;8.14;59.47;94753.34;5024160;28;20457;-56
2022/11/25 00:23:50;;;;;;;2.90;2.50;;;8.10;94.80;;;8.14;59.76;94752.50;5024163;28;20500;-55
2022/11/25 00:26:19;;;;;;;2.53;2.33;;;8.10;94.80;;;8.12;59.59;94750.03;5024046;28;20455;-58
2022/11/25 00:28:47;;;;;;;3.13;2.93;;;8.10;94.70;;;8.14;59.26;94752.50;5025533;28;20484;-56
2022/11/25 00:31:16;;;;;;;6.50;2.57;;;8.10;94.80;;;8.13;59.91;94754.28;5024822;28;20445;-56
2022/11/25 00:33:43;;;;;;;2.93;2.70;;;8.20;94.80;;;8.14;59.43;94752.50;5022826;28;20488;-55
2022/11/25 00:36:15;;;;;;;5.70;3.00;;;8.10;94.80;;;8.16;60.03;94756.66;5021644;28;20460;-57
2022/11/25 00:38:43;;;;;;;2.50;2.07;;;8.20;94.90;;;8.13;59.38;94751.66;5025167;28;21045;-55
2022/11/25 00:46:43;;;;;;;4.23;2.40;;;8.10;94.90;;;8.13;59.74;94764.75;5006691;28;20991;-54
2022/11/25 00:49:10;;;;;;;4.03;3.33;;;8.10;95.00;;;8.11;59.74;94761.44;5023960;28;21016;-56
2022/11/25 00:51:37;;;;;;;3.83;3.53;;;8.10;95.00;;;8.10;59.83;94767.63;5022628;28;20484;-55
2022/11/25 00:54:05;;;;;;;3.03;2.80;;;8.10;95.10;;;8.11;59.94;94768.50;5028789;28;20471;-54
2022/11/25 00:56:33;;;;;;;5.17;3.03;;;8.10;95.10;;;8.10;60.22;94764.19;5028648;28;20456;-56
2022/11/25 00:59:01;;;;;;;4.33;2.87;;;8.10;95.10;;;8.10;60.22;94757.16;5026612;28;20554;-56
2022/11/25 01:01:28;;;;;;;2.83;2.57;;;8.10;95.00;;;8.10;59.72;94757.16;5023465;28;20460;-56
2022/11/25 01:03:56;;;;;;;4.93;2.60;;;8.10;95.10;;;8.10;59.80;94767.63;5027846;28;20516;-56
2022/11/25 01:06:23;;;;;;;4.50;2.63;;;8.10;95.10;;;8.10;60.20;94758.97;5027594;28;20535;-54
2022/11/25 01:08:50;;;;;;;3.10;2.80;;;8.10;95.10;;;8.11;60.24;94764.06;5028156;28;20644;-55
2022/11/25 01:11:19;;;;;;;3.53;3.23;;;8.10;95.10;;;8.13;59.97;94761.31;5027273;28;20457;-56
2022/11/25 01:13:46;;;;;;;3.03;2.50;;;8.10;95.10;;;8.14;60.29;94763.00;5027936;28;20476;-57
2022/11/25 01:16:16;;;;;;;4.30;2.87;;;8.10;95.10;;;8.13;60.32;94758.69;5028045;28;20506;-54
2022/11/25 01:18:43;;;;;;;5.63;2.80;;;8.10;95.00;;;8.14;60.06;94774.28;5028382;28;20534;-56
2022/11/25 01:21:13;;;;;;;3.73;2.80;;;8.10;95.00;;;8.16;59.94;94766.31;5026919;28;20962;-55
2022/11/25 01:23:40;;;;;;;2.67;2.47;;;8.20;95.00;;;8.17;59.58;94763.56;5026382;28;20489;-53
2022/11/25 01:26:12;;;;;;;6.80;2.40;;;8.20;95.00;;;8.19;60.02;94766.06;5027850;28;20484;-56
2022/11/25 01:28:39;;;;;;;3.50;3.20;;;8.20;95.00;;;8.19;59.96;94766.88;5028422;28;20526;-56
2022/11/25 01:31:09;;;;;;;5.67;2.37;;;8.20;95.00;;;8.19;59.59;94766.88;5026469;28;20891;-56
2022/11/25 01:33:37;;;;;;;2.27;2.07;;;8.20;95.00;;;8.20;59.49;94752.00;5024550;28;20471;-52
2022/11/25 01:36:06;;;;;;;2.40;2.20;;;8.20;94.90;;;8.21;59.61;94754.50;5027659;28;20566;-54
2022/11/25 01:38:34;;;;;;;2.73;2.50;;;8.20;94.90;;;8.21;59.66;94751.88;5026742;28;20984;-57
2022/11/25 01:41:01;;;;;;;2.50;2.27;;;8.20;94.90;;;8.22;59.46;94750.06;5026623;28;21001;-56
2022/11/25 01:43:29;;;;;;;2.57;2.37;;;8.20;94.90;;;8.23;59.49;94749.13;5026312;28;20507;-56
2022/11/25 01:45:58;;;;;;;2.47;2.27;;;8.20;94.90;;;8.23;59.90;94736.84;5027713;28;20456;-56
2022/11/25 01:48:27;;;;;;;1.97;1.87;;;8.20;94.80;;;8.24;59.48;94735.91;5027605;28;20440;-56
2022/11/25 01:50:55;;;;;;;2.20;1.93;;;8.20;94.70;;;8.24;59.07;94729.81;5026635;28;20457;-55
2022/11/25 01:53:23;;;;;;;2.53;2.43;;;8.20;94.60;;;8.24;59.54;94727.19;5027466;28;20457;-55
2022/11/25 01:55:53;;;;;;;5.13;1.67;;;8.30;94.60;;;8.24;59.31;94720.19;5027122;28;20526;-54
2022/11/25 01:58:24;;;;;;;4.10;2.00;;;8.20;94.40;;;8.24;59.13;94721.94;5026001;28;20445;-53
2022/11/25 02:00:51;;;;;;;1.60;1.50;;;8.20;94.50;;;8.25;59.35;94721.81;5022542;28;20448;-52
2022/11/25 02:03:21;;;;;;;1.80;1.70;;;8.30;94.30;;;8.26;58.53;94726.09;5024912;28;21129;-53
2022/11/25 02:05:52;;;;;;;2.00;1.80;;;8.20;94.20;;;8.28;58.80;94733.03;5027161;28;20532;-57
2022/11/25 02:08:21;;;;;;;2.00;1.83;;;8.30;94.20;;;8.28;58.89;94743.50;5026864;28;20445;-55
2022/11/25 02:10:48;;;;;;;1.67;1.50;;;8.20;94.10;;;8.26;58.53;94733.97;5027150;28;20937;-55
2022/11/25 02:13:16;;;;;;;1.63;1.50;;;8.30;94.10;;;8.29;58.42;94739.91;5025638;28;20452;-56
2022/11/25 02:15:43;;;;;;;1.83;1.70;;;8.30;94.20;;;8.28;58.68;94749.56;5023982;28;20485;-55
2022/11/25 02:18:10;;;;;;;2.13;2.03;;;8.30;94.20;;;8.29;58.83;94745.13;5026279;28;20456;-54
2022/11/25 02:20:38;;;;;;;2.23;2.00;;;8.30;94.20;;;8.28;58.86;94748.75;5025820;28;20477;-55
2022/11/25 02:23:10;;;;;;;1.50;1.40;;;8.30;94.10;;;8.28;58.52;94753.97;5026217;28;20464;-55
2022/11/25 02:25:40;;;;;;;1.90;1.80;;;8.30;94.10;;;8.29;58.74;94747.75;5025726;28;20473;-55
2022/11/25 02:28:10;;;;;;;2.33;2.20;;;8.30;94.10;;;8.27;58.01;94747.88;5023296;28;20889;-57
2022/11/25 02:30:37;;;;;;;1.73;1.63;;;8.30;93.90;;;8.25;58.42;94745.41;5025083;28;20483;-55
2022/11/25 02:33:05;;;;;;;1.53;1.43;;;8.30;93.90;;;8.24;58.21;94749.00;5024313;28;20460;-56
2022/11/25 02:35:34;;;;;;;2.40;2.20;;;8.20;93.80;;;8.25;58.31;94747.19;5023613;28;20486;-56
2022/11/25 02:38:08;;;;;;;2.07;1.70;;;8.30;94.10;;;8.25;58.63;94749.81;5025138;28;20452;-56
2022/11/25 02:40:44;;;;;;;1.70;1.60;;;8.20;93.80;;;8.25;58.07;94750.63;5024507;28;20487;-55
2022/11/25 02:43:12;;;;;;;5.00;2.30;;;8.20;93.70;;;8.23;58.49;94742.09;5024659;28;20559;-55
2022/11/25 02:46:02;;;;;;;5.33;2.50;;;8.20;93.60;;;8.22;57.74;94750.91;5023956;28;20504;-55
2022/11/25 02:48:30;;;;;;;4.93;2.30;;;8.20;93.50;;;8.20;58.03;94752.00;5026067;28;20456;-56
2022/11/25 02:50:58;;;;;;;1.87;1.77;;;8.20;93.60;;;8.18;57.91;94741.66;5026386;28;20460;-55
2022/11/25 02:53:25;;;;;;;2.80;2.10;;;8.20;93.50;;;8.17;58.26;94741.78;5021682;28;20463;-56
2022/11/25 02:55:54;;;;;;;2.00;1.90;;;8.20;93.60;;;8.15;58.14;94748.91;5021769;28;20996;-60
2022/11/25 02:58:21;;;;;;;2.80;2.60;;;8.20;93.60;;;8.13;58.53;94746.41;5026042;28;20461;-56
2022/11/25 03:00:49;;;;;;;2.50;2.23;;;8.20;93.60;;;8.10;58.34;94749.28;5024867;28;20449;-55
2022/11/25 03:03:17;;;;;;;2.70;2.50;;;8.10;93.60;;;8.10;58.60;94751.91;5025705;28;20464;-53
2022/11/25 03:05:44;;;;;;;3.93;2.30;;;8.10;93.80;;;8.09;58.83;94750.28;5026369;28;20515;-55
2022/11/25 03:08:11;;;;;;;2.27;2.07;;;8.10;93.80;;;8.08;58.75;94749.44;5024218;28;20468;-57
2022/11/25 03:10:39;;;;;;;2.27;2.17;;;8.10;93.90;;;8.06;59.06;94761.00;5024490;28;20480;-54
2022/11/25 03:13:09;;;;;;;2.60;2.40;;;8.10;93.90;;;8.03;58.44;94756.84;5025213;28;20988;-56
2022/11/25 03:15:36;;;;;;;2.50;2.10;;;8.00;93.90;;;8.06;58.90;94766.25;5023328;28;20667;-56
2022/11/25 03:18:04;;;;;;;2.23;2.03;;;8.10;94.10;;;8.04;58.85;94768.13;5025547;28;20492;-54
2022/11/25 03:20:31;;;;;;;2.87;2.43;;;8.10;94.10;;;8.01;59.09;94771.00;5023882;28;20851;-55
2022/11/25 03:22:58;;;;;;;5.63;2.80;;;8.00;94.10;;;7.97;59.39;94767.81;5023827;28;20452;-55
2022/11/25 03:25:26;;;;;;;2.47;2.27;;;8.00;94.10;;;7.97;59.09;94774.88;5024287;28;20496;-55
2022/11/25 03:27:53;;;;;;;2.70;2.50;;;8.00;94.20;;;7.97;59.45;94777.47;5025278;28;20814;-56
2022/11/25 03:30:23;;;;;;;3.30;2.60;;;8.00;94.40;;;7.96;59.66;94781.03;5023791;28;20889;-58
2022/11/25 03:32:51;;;;;;;3.00;2.80;;;7.90;94.50;;;7.94;59.97;94788.22;5021143;28;20449;-56
2022/11/25 03:35:18;;;;;;;2.40;2.20;;;8.00;94.80;;;7.92;59.35;94790.09;5019578;28;20479;-55
2022/11/25 03:37:46;;;;;;;4.23;3.43;;;7.90;94.70;;;7.90;60.11;94788.47;5024980;28;20563;-55
2022/11/25 03:40:14;;;;;;;2.47;2.27;;;7.90;95.00;;;7.89;60.20;94792.03;5023435;28;21079;-55
2022/11/25 03:42:41;;;;;;;3.20;2.90;;;7.90;94.90;;;7.88;60.21;94790.38;5021073;28;20977;-55
2022/11/25 03:45:11;;;;;;;3.03;2.23;;;7.90;95.10;;;7.85;59.98;94795.03;5024476;28;20505;-56
2022/11/25 03:47:40;;;;;;;2.80;2.60;;;7.90;95.20;;;7.83;60.00;94795.13;5023125;28;20455;-54
2022/11/25 03:50:09;;;;;;;3.10;2.00;;;7.90;95.20;;;7.79;60.77;94799.00;5024342;28;20485;-55
2022/11/25 03:52:36;;;;;;;3.07;2.87;;;7.80;95.40;;;7.76;60.08;94801.84;5023670;28;20544;-56
2022/11/25 03:55:04;;;;;;;4.40;3.00;;;7.80;95.40;;;7.71;60.67;94796.13;5024526;28;20502;-57
2022/11/25 03:57:31;;;;;;;2.37;2.17;;;7.70;95.50;;;7.67;61.01;94802.59;5025135;28;20875;-55
2022/11/25 03:59:58;;;;;;;2.13;1.93;;;7.70;95.70;;;7.63;61.29;94814.25;5024608;28;20520;-55
2022/11/25 04:02:25;;;;;;;2.67;2.47;;;7.70;95.80;;;7.58;60.69;94806.78;5021410;28;21008;-56
2022/11/25 04:04:54;;;;;;;2.50;2.30;;;7.60;95.80;;;7.54;61.62;94816.66;5022245;28;20500;-56
2022/11/25 04:07:21;;;;;;;2.03;1.93;;;7.60;96.00;;;7.50;61.56;94815.25;5022122;28;20538;-56
2022/11/25 04:09:49;;;;;;;2.30;2.20;;;7.60;96.20;;;7.47;61.55;94822.50;5020084;28;20489;-56
2022/11/25 04:15:01;;;;;;;2.70;2.57;;;7.50;96.50;;;7.39;62.00;94830.13;5019791;28;21035;-55
2022/11/25 04:17:28;;;;;;;2.40;2.20;;;7.40;96.50;;;7.36;61.96;94828.59;5020894;28;20554;-55
2022/11/25 04:19:57;;;;;;;3.63;1.73;;;7.40;96.50;;;7.31;62.24;94823.72;5019302;28;21484;-56
2022/11/25 04:22:24;;;;;;;2.13;2.03;;;7.40;96.70;;;7.28;62.19;94825.72;5021466;28;20464;-56
2022/11/25 04:24:51;;;;;;;3.90;2.10;;;7.30;96.70;;;7.26;62.51;94831.09;5018823;28;20492;-57
2022/11/25 04:27:18;;;;;;;4.43;2.40;;;7.30;96.60;;;7.24;62.13;94829.56;5021055;28;21075;-57
2022/11/25 04:29:46;;;;;;;2.73;2.50;;;7.30;97.20;;;7.21;61.99;94833.25;5027966;28;20481;-56
2022/11/25 04:32:13;;;;;;;2.30;2.10;;;7.30;96.90;;;7.18;63.08;94838.72;5025856;28;20464;-54
2022/11/25 04:34:40;;;;;;;3.33;1.43;;;7.30;97.20;;;7.16;62.34;94849.28;5024169;28;20480;-56
2022/11/25 04:37:09;;;;;;;2.00;1.90;;;7.30;97.20;;;7.16;63.09;94841.44;5024633;28;20838;-53
2022/11/25 04:39:36;;;;;;;2.07;1.93;;;7.20;97.40;;;7.14;63.22;94843.34;5021132;28;20487;-56
2022/11/25 04:44:48;;;;;;;1.70;1.60;;;7.20;97.30;;;7.14;62.75;94848.59;5024285;28;20744;-55
2022/11/25 04:47:15;;;;;;;2.30;1.67;;;7.20;97.30;;;7.13;62.78;94852.16;5026512;28;20657;-54
2022/11/25 04:49:43;;;;;;;1.73;1.30;;;7.20;97.50;;;7.14;62.39;94852.97;5028435;28;20479;-55
2022/11/25 04:52:11;;;;;;;2.40;2.00;;;7.20;97.30;;;7.17;64.48;94843.13;5028289;28;20456;-56
2022/11/25 04:54:38;;;;;;;1.90;1.80;;;7.20;99.50;;;7.27;66.13;94847.63;5021678;28;20476;-58
2022/11/25 04:57:06;;;;;;;1.93;1.83;;;7.30;99.90;;;7.36;66.39;94858.19;5027133;28;21023;-57
2022/11/25 04:59:42;;;;;;;1.70;1.60;;;7.40;99.90;;;7.46;65.54;94871.38;5029183;28;20530;-55
2022/11/25 05:02:16;;;;;;;1.47;1.37;;;7.50;99.90;;;7.57;65.49;94873.16;5026260;28;20874;-55
2022/11/25 05:04:44;;;;;;;9.50;1.30;;;7.60;99.90;;;7.67;64.95;94881.13;5023770;28;20589;-57
2022/11/25 05:07:13;;;;;;;1.27;1.17;;;7.70;99.70;;;7.72;64.97;94890.25;5027373;28;20457;-56
2022/11/25 05:09:40;;;;;;;1.30;1.20;;;7.70;99.90;;;7.79;63.88;94890.63;5027721;28;20480;-57
2022/11/25 05:12:10;;;;;;;1.30;1.20;;;7.80;99.30;;;7.84;62.88;94898.94;5026774;28;20460;-54
2022/11/25 05:14:37;;;;;;;1.47;1.37;;;7.80;98.50;;;7.88;63.57;94896.91;5025894;28;20477;-56
2022/11/25 05:17:05;;;;;;;2.10;1.93;;;7.90;99.20;;;7.93;63.65;94909.63;5026900;28;20468;-56
2022/11/25 05:19:34;;;;;;;1.57;1.37;;;7.90;98.60;;;7.99;63.75;94909.13;5027070;28;20484;-55
2022/11/25 05:22:02;;;;;;;1.63;1.40;;;7.90;98.90;;;8.05;62.46;94916.50;5027296;28;20477;-56
2022/11/25 05:24:30;;;;;;;5.90;1.77;;;8.00;98.10;;;8.06;62.27;94924.22;5027675;28;20500;-56
2022/11/25 05:26:58;;;;;;;1.20;1.10;;;8.00;97.80;;;8.06;62.04;94932.09;5027002;28;20453;-54
2022/11/25 05:29:25;;;;;;;6.90;1.40;;;8.10;97.10;;;8.06;62.39;94933.88;5027342;28;20499;-55
2022/11/25 05:31:52;;;;;;;2.20;1.40;;;8.00;97.80;;;8.10;61.39;94937.91;5025861;28;20510;-56
2022/11/25 05:34:20;;;;;;;1.87;1.77;;;8.10;97.20;;;8.11;61.40;94944.81;5024622;28;20843;-58
2022/11/25 05:36:47;;;;;;;2.33;1.50;;;8.10;96.80;;;8.10;60.83;94958.84;5028026;28;20452;-56
2022/11/25 05:39:14;;;;;;;1.57;1.40;;;8.10;96.70;;;8.08;60.87;94945.06;5024328;28;20566;-56
2022/11/25 05:41:43;;;;;;;1.70;1.60;;;8.10;96.40;;;8.06;60.55;94955.66;5026956;28;20460;-55
2022/11/25 05:44:10;;;;;;;2.27;2.07;;;8.10;96.50;;;8.05;61.01;94958.41;5027216;28;20533;-56
2022/11/25 05:46:38;;;;;;;7.20;2.60;;;8.00;96.40;;;8.03;60.97;94963.75;5026973;28;20460;-56
2022/11/25 05:49:06;;;;;;;3.23;2.17;;;8.00;96.60;;;8.04;60.52;94962.81;5024846;28;21013;-56
2022/11/25 05:51:33;;;;;;;2.10;2.00;;;8.00;96.30;;;8.06;60.22;94967.94;5025948;28;20456;-57
2022/11/25 05:54:00;;;;;;;5.70;2.30;;;8.10;96.30;;;8.17;60.30;94972.31;5023787;28;20523;-55
2022/11/25 05:56:28;;;;;;;5.90;2.57;;;8.10;96.20;;;8.45;59.68;94976.19;5025706;28;20452;-55
2022/11/25 05:58:58;;;;;;;3.20;2.23;;;8.30;96.00;;;8.74;58.87;94976.44;5020773;28;20484;-57
2022/11/25 06:01:25;;;;;;;4.20;2.80;;;8.50;95.60;;;8.90;58.98;94986.50;5022855;28;20448;-57
2022/11/25 06:03:53;;;;;;;3.80;1.80;;;8.70;95.40;;;9.04;58.09;94987.16;5024004;28;20481;-55
2022/11/25 06:06:20;;;;;;;5.13;2.27;;;8.90;94.80;;;9.28;57.95;94987.72;5026113;28;20508;-54
2022/11/25 06:08:47;;;;;;;2.93;2.70;;;9.10;94.60;;;9.57;59.27;94994.91;5023914;28;21002;-55
2022/11/25 06:11:16;;;;;;;2.40;2.20;;;9.40;95.80;;;9.77;59.16;94990.59;5025894;28;20468;-54
2022/11/25 06:13:44;;;;;;;3.03;2.80;;;9.60;96.00;;;9.82;57.83;94998.06;5026828;28;20821;-57
2022/11/25 06:16:14;;;;;;;8.40;2.20;;;9.70;94.70;;;9.74;57.30;94985.59;5025514;28;20452;-55
2022/11/25 06:18:41;;;;;;;1.60;1.50;;;9.70;94.20;;;9.67;56.91;94995.81;5023585;28;20473;-56
2022/11/25 06:21:09;;;;;;;2.53;2.03;;;9.60;93.60;;;9.59;57.38;94994.78;5025494;28;20457;-55
2022/11/25 06:23:37;;;;;;;6.80;1.70;;;9.60;93.70;;;9.48;56.78;95004.44;5023452;28;20937;-56
2022/11/25 06:26:06;;;;;;;2.77;1.90;;;9.50;93.30;;;9.43;57.12;95011.03;5023984;28;20488;-55
2022/11/25 06:28:33;;;;;;;1.67;1.57;;;9.40;93.40;;;9.38;57.11;95015.84;5023575;28;21082;-55
2022/11/25 06:31:06;;;;;;;1.67;1.57;;;9.40;93.30;;;9.30;56.53;95014.69;5026006;28;20452;-57
2022/11/25 06:33:35;;;;;;;2.53;1.60;;;9.30;92.90;;;9.25;56.77;95022.09;5021087;28;20449;-56
2022/11/25 06:36:04;;;;;;;4.47;2.27;;;9.30;93.20;;;9.19;57.29;95030.50;5025078;28;20453;-57
2022/11/25 06:38:31;;;;;;;5.53;2.33;;;9.20;93.20;;;9.17;56.81;95031.56;5023823;28;20483;-55
2022/11/25 06:41:01;;;;;;;2.90;1.70;;;9.10;93.10;;;9.14;56.75;95035.31;5026186;28;20534;-56
2022/11/25 06:43:29;;;;;;;10.30;2.37;;;9.10;93.10;;;9.11;56.96;95032.94;5023671;28;20453;-55
2022/11/25 06:46:01;;;;;;;2.73;2.53;;;9.10;93.10;;;9.04;56.47;95037.84;5024437;28;20546;-54
2022/11/25 06:48:29;;;;;;;4.20;2.70;;;9.10;92.90;;;9.02;57.33;95041.56;5026278;28;20515;-57
2022/11/25 06:50:59;;;;;;;3.13;2.80;;;9.00;93.20;;;9.00;57.49;95043.44;5025615;28;20904;-56
2022/11/25 06:53:26;;;;;;;2.60;2.30;;;9.00;93.20;;;8.97;56.70;95041.94;5026703;28;20473;-55
2022/11/25 06:56:08;;;;;;;5.03;2.97;;;9.00;93.00;;;8.95;57.00;95052.56;5025765;28;20448;-56
2022/11/25 06:58:35;;;;;;;2.70;1.97;;;9.00;93.00;;;8.93;56.92;95041.34;5024849;28;20448;-56
2022/11/25 07:01:04;;;;;;;7.70;2.30;;;8.90;93.10;;;8.90;56.25;95052.06;5026661;28;20841;-55
2022/11/25 07:03:31;;;;;;;2.70;2.10;;;8.90;92.60;;;8.87;57.01;95044.47;5026102;28;20440;-56
2022/11/25 07:06:00;;;;;;;5.87;1.93;;;8.90;92.90;;;8.87;56.51;95049.69;5026696;28;20525;-55
2022/11/25 07:08:28;;;;;;;2.53;2.27;;;8.90;92.80;;;8.89;56.55;95046.94;5026400;28;20540;-56
2022/11/25 07:10:55;;;;;;;2.10;1.90;;;8.90;92.70;;;8.89;56.45;95047.81;5026223;28;20971;-55
2022/11/25 07:13:22;;;;;;;2.23;1.93;;;8.90;92.70;;;8.91;56.66;95050.31;5026156;28;20909;-56
2022/11/25 07:15:50;;;;;;;1.90;1.80;;;8.90;92.70;;;8.93;56.81;95048.38;5026247;28;20452;-55
2022/11/25 07:18:17;;;;;;;2.73;1.80;;;8.90;92.80;;;8.97;56.50;95052.44;5026251;28;20832;-56
2022/11/25 07:20:44;;;;;;;3.20;3.00;;;9.00;92.80;;;9.03;56.64;95053.69;5022405;28;20992;-55
2022/11/25 07:23:13;;;;;;;4.03;3.30;;;9.00;92.80;;;9.08;56.24;95067.28;5022996;28;20613;-56
2022/11/25 07:25:40;;;;;;;2.87;2.67;;;9.00;92.60;;;9.15;56.05;95068.44;5025603;28;20921;-56
2022/11/25 07:28:07;;;;;;;2.20;2.10;;;9.10;92.40;;;9.24;55.85;95067.69;5025825;28;20457;-55
2022/11/25 07:30:35;;;;;;;10.00;2.60;;;9.20;92.30;;;9.29;55.98;95060.25;5026108;28;20472;-55
2022/11/25 07:33:02;;;;;;;2.90;2.70;;;9.20;92.20;;;9.46;55.94;95058.03;5025242;28;20453;-55
2022/11/25 07:35:29;;;;;;;3.23;3.03;;;9.50;92.40;;;10.13;54.96;95053.25;5026307;28;20483;-57
2022/11/25 07:37:57;;;;;;;8.43;2.67;;;9.90;92.20;;;11.11;54.38;95059.59;5025965;28;20456;-58
2022/11/25 07:40:25;;;;;;;7.30;3.90;;;10.80;91.70;;;12.28;52.14;95059.34;5025458;28;20469;-57
2022/11/25 07:42:53;;;;;;;2.77;2.57;;;11.80;90.50;;;13.43;50.54;95070.31;5025716;28;20453;-57
2022/11/25 07:45:23;;;;;;;2.73;2.53;;;12.90;89.60;;;14.55;46.74;95059.91;5025661;28;20503;-56
2022/11/25 07:47:50;;;;;;;2.70;2.43;;;13.90;82.20;;;15.53;46.75;95065.44;5026278;28;20480;-56
2022/11/25 07:50:18;;;;;;;2.43;2.00;;;14.90;81.70;;;16.43;43.94;95064.50;5025925;28;20891;-56
2022/11/25 07:52:45;;;;;;;3.30;3.00;;;15.80;74.10;;;17.20;42.81;95069.16;5025952;28;20972;-55
2022/11/25 07:55:12;;;;;;;3.07;2.20;;;16.60;71.40;;;17.83;42.00;95069.03;5025068;28;20543;-54
2022/11/25 07:57:41;;;;;;;3.53;2.77;;;17.20;68.90;;;18.40;41.57;95077.47;5025523;28;20444;-57
2022/11/25 08:00:10;;;;;;;2.47;1.93;;;17.80;66.70;;;18.94;39.70;95065.72;5025351;28;20485;-57
2022/11/25 08:02:37;;;;;;;4.30;2.60;;;18.30;62.60;;;19.40;39.62;95069.91;5027096;28;20998;-56
2022/11/25 08:05:06;;;;;;;2.30;2.17;;;18.80;61.30;;;19.77;38.49;95076.00;5031593;28;20546;-57
2022/11/25 08:07:33;;;;;;;4.03;2.90;;;19.10;58.70;;;20.13;37.52;95070.56;5031797;28;20459;-56
2022/11/25 08:10:01;;;;;;;2.40;2.30;;;19.50;58.10;;;20.50;37.19;95076.56;5031820;28;20522;-55
2022/11/25 08:12:28;;;;;;;2.90;2.70;;;19.90;56.30;;;20.88;37.19;95083.38;5031951;28;20518;-55
2022/11/25 08:14:57;;;;;;;2.50;2.30;;;20.20;57.20;;;21.31;34.30;95091.16;5032057;28;20524;-57
2022/11/25 08:17:24;;;;;;;3.70;2.50;;;20.70;54.20;;;21.63;35.73;95091.47;5032026;28;20456;-57
2022/11/25 08:19:52;;;;;;;2.20;2.10;;;21.00;53.50;;;21.83;34.78;95097.69;5031795;28;20472;-56
2022/11/25 08:22:19;;;;;;;2.57;2.43;;;21.20;53.50;;;21.94;34.64;95098.13;5032527;28;20813;-55
2022/11/25 08:24:46;;;;;;;6.70;2.30;;;21.40;51.80;;;22.05;34.29;95097.50;5031570;28;20476;-55
2022/11/25 08:27:13;;;;;;;3.60;3.30;;;21.50;51.20;;;22.28;34.01;95089.03;5031193;28;20492;-55
2022/11/25 08:29:41;;;;;;;2.80;2.60;;;21.70;50.50;;;22.43;33.78;95088.84;5030814;28;21011;-57
2022/11/25 08:32:10;;;;;;;4.33;2.83;;;21.80;50.60;;;22.36;33.74;95093.41;5031666;28;20461;-55
2022/11/25 08:34:37;;;;;;;4.53;3.47;;;21.80;49.90;;;22.15;33.56;95086.34;5031745;28;20476;-57
2022/11/25 08:37:04;;;;;;;2.67;2.57;;;21.80;49.50;;;22.14;32.67;95082.88;5031244;28;20514;-55
2022/11/25 08:39:32;;;;;;;3.83;2.83;;;21.70;49.00;;;22.14;32.11;95082.06;5030840;28;20469;-55
2022/11/25 08:41:59;;;;;;;2.70;2.50;;;21.60;47.70;;;22.14;33.05;95093.59;5031216;28;20487;-56
2022/11/25 08:44:28;;;;;;;4.40;2.30;;;21.60;48.00;;;21.89;30.87;95095.22;5031119;28;20480;-57
2022/11/25 08:46:56;;;;;;;2.90;2.60;;;21.50;44.80;;;21.79;33.69;95090.25;5028100;28;20898;-57
2022/11/25 08:49:25;;;;;;;11.93;3.33;;;21.40;48.70;;;21.69;32.30;95090.66;5031431;28;20469;-56
2022/11/25 08:51:53;;;;;;;3.90;3.53;;;21.30;47.00;;;21.74;33.30;95088.19;5031538;28;20539;-56
2022/11/25 08:54:20;;;;;;;3.40;3.10;;;21.30;48.20;;;22.02;33.05;95076.47;5030975;28;20504;-57
2022/11/25 08:56:48;;;;;;;2.70;2.50;;;21.50;48.00;;;22.31;32.36;95087.84;5031884;28;20456;-57
2022/11/25 08:59:15;;;;;;;4.50;2.90;;;21.70;47.40;;;22.30;29.84;95080.78;5031159;28;21000;-56
2022/11/25 09:01:42;;;;;;;3.40;2.70;;;21.60;44.90;;;21.81;32.04;95089.03;5031019;28;20463;-56
2022/11/25 09:04:10;;;;;;;3.60;3.30;;;21.50;46.30;;;21.67;32.56;95077.50;5031152;28;20492;-55
2022/11/25 09:06:39;;;;;;;3.83;3.50;;;21.40;46.30;;;21.81;32.27;95090.88;5031637;28;20494;-56
2022/11/25 09:09:06;;;;;;;3.93;3.50;;;21.40;46.60;;;21.74;31.90;95085.53;5031955;28;20477;-55
2022/11/25 09:11:34;;;;;;;2.57;2.37;;;21.10;45.80;;;21.46;32.45;95083.78;5031816;28;20547;-56
2022/11/25 09:14:01;;;;;;;3.13;2.93;;;21.00;45.80;;;21.09;33.16;95088.63;5028511;28;20512;-56
2022/11/25 09:16:28;;;;;;;2.90;2.47;;;20.80;46.70;;;20.94;33.49;95090.59;5027789;28;20522;-57
2022/11/25 09:18:56;;;;;;;4.10;2.70;;;20.60;47.60;;;20.76;33.08;95096.50;5028352;28;20479;-57
2022/11/25 09:21:23;;;;;;;3.13;2.83;;;20.40;46.70;;;20.76;33.22;95089.28;5027944;28;20460;-56
2022/11/25 09:23:52;;;;;;;2.87;2.67;;;20.50;46.70;;;21.05;33.32;95095.41;5027999;28;20480;-56
2022/11/25 09:26:24;;;;;;;3.10;2.83;;;20.60;47.60;;;21.54;32.83;95092.69;5027182;28;20587;-56
2022/11/25 09:28:51;;;;;;;2.07;1.97;;;21.00;47.20;;;22.06;31.69;95090.28;5024956;28;21024;-56
2022/11/25 09:31:19;;;;;;;3.40;2.60;;;21.40;45.90;;;22.35;31.41;95087.22;5028046;28;20960;-54
2022/11/25 09:33:46;;;;;;;3.13;2.83;;;21.60;44.90;;;22.31;31.32;95088.66;5026485;28;20476;-54
2022/11/25 09:36:14;;;;;;;2.70;2.50;;;21.70;45.00;;;22.39;29.75;95084.94;5028119;28;20471;-56
2022/11/25 09:38:43;;;;;;;2.90;2.70;;;21.90;43.30;;;22.51;30.36;95096.69;5028351;28;20502;-57
2022/11/25 09:46:40;;;;;;;5.03;2.90;;;22.00;43.40;;;22.56;29.35;95091.50;5027581;28;20967;-56
2022/11/25 09:47:04;;;;;;;4.93;2.50;;;22.30;44.30;;;23.05;30.72;95099.19;5025674;28;20499;-56
2022/11/25 09:49:45;;;;;;;3.73;2.37;;;22.50;44.00;;;23.14;29.00;95095.28;5027695;28;21032;-56
2022/11/25 09:52:18;;;;;;;4.03;2.87;;;22.50;42.70;;;22.69;29.25;95095.19;5025974;28;20469;-55
2022/11/25 09:54:49;;;;;;;4.20;3.53;;;22.30;42.60;;;22.24;29.87;95093.16;5027719;28;20508;-56
2022/11/25 09:57:23;;;;;;;5.57;2.80;;;22.00;42.70;;;22.16;29.95;95088.00;5026247;28;20460;-56
2022/11/25 10:00:00;;;;;;;2.60;2.40;;;21.90;43.00;;;22.32;29.11;95097.50;5027625;28;20495;-56
2022/11/25 10:02:34;;;;;;;2.13;2.03;;;21.90;42.70;;;22.50;29.89;95097.69;5024371;28;20451;-56
2022/11/25 10:05:05;;;;;;;2.17;2.07;;;22.00;42.60;;;22.70;29.99;95097.66;5027398;28;21008;-57
2022/11/25 10:07:38;;;;;;;2.20;1.93;;;22.10;42.50;;;23.02;27.76;95088.91;5027506;28;20768;-57
2022/11/25 10:10:06;;;;;;;3.47;1.80;;;22.40;41.00;;;23.32;28.80;95099.97;5027614;28;21074;-55
2022/11/25 10:12:38;;;;;;;4.00;2.70;;;22.70;41.60;;;23.58;29.63;95093.63;5027340;28;20464;-56
2022/11/25 10:15:12;;;;;;;3.70;2.60;;;23.00;42.20;;;23.80;27.64;95099.47;5023943;28;20469;-55
2022/11/25 10:17:43;;;;;;;2.30;1.80;;;23.10;39.70;;;23.63;28.52;95093.78;5027225;28;20977;-56
2022/11/25 10:20:16;;;;;;;3.43;3.13;;;23.20;40.50;;;23.43;28.59;95090.41;5027575;28;20490;-55
2022/11/25 10:22:45;;;;;;;2.33;2.13;;;23.00;40.70;;;22.95;29.14;95099.66;5026848;28;20992;-56
2022/11/25 10:25:15;;;;;;;2.17;1.97;;;22.60;40.80;;;22.68;28.62;95104.25;5025708;28;20472;-56
2022/11/25 10:27:45;;;;;;;2.30;2.10;;;22.30;41.20;;;22.30;29.73;95092.34;5024259;28;20760;-55
2022/11/25 10:30:17;;;;;;;3.17;2.47;;;22.00;41.60;;;21.83;29.86;95089.66;5026645;28;20515;-53
2022/11/25 10:32:48;;;;;;;2.30;1.60;;;21.70;41.40;;;21.62;29.85;95085.28;5025665;28;20453;-57
2022/11/25 10:35:24;;;;;;;2.10;1.83;;;21.50;42.20;;;21.77;30.07;95087.78;5026776;28;20481;-55
2022/11/25 10:37:54;;;;;;;2.40;1.93;;;21.50;42.40;;;22.12;29.92;95087.63;5026822;28;20531;-56
2022/11/25 10:40:21;;;;;;;3.10;1.90;;;21.70;42.40;;;22.61;29.28;95095.41;5022706;28;20498;-56
2022/11/25 10:42:50;;;;;;;1.87;1.73;;;22.00;41.50;;;22.95;28.24;95082.75;5027107;28;20456;-54
2022/11/25 10:45:17;;;;;;;1.97;1.80;;;22.30;40.60;;;23.17;28.33;95078.75;5026741;28;20484;-55
2022/11/25 10:48:14;;;;;;;2.47;1.80;;;22.50;40.70;;;23.44;27.84;95092.06;5026816;28;20862;-59